sensor_id;sensor_type;location;lat;lon;timestamp;P1;durP1;ratioP1;P2;durP2;ratioP2
72974;SDS011;61166;54.228;37.632;2022-11-02T00:01:14;11.20;;;2.65;;
72974;SDS011;61166;54.228;37.632;2022-11-02T00:03:46;7.53;;;2.97;;
72974;SDS011;61166;54.228;37.632;2022-11-02T00:06:13;8.82;;;2.80;;
72974;SDS011;61166;54.228;37.632;2022-11-02T00:08:40;8.70;;;3.17;;
72974;SDS011;61166;54.228;37.632;2022-11-02T00:11:07;13.15;;;3.70;;
72974;SDS011;61166;54.228;37.632;2022-11-02T00:13:33;15.18;;;3.88;;
72974;SDS011;61166;54.228;37.632;2022-11-02T00:16:01;13.48;;;4.28;;
72974;SDS011;61166;54.228;37.632;2022-11-02T00:18:32;11.18;;;4.05;;
72974;SDS011;61166;54.228;37.632;2022-11-02T00:21:01;10.75;;;4.47;;
72974;SDS011;61166;54.228;37.632;2022-11-02T00:23:29;9.25;;;3.90;;
72974;SDS011;61166;54.228;37.632;2022-11-02T00:25:57;9.63;;;3.58;;
72974;SDS011;61166;54.228;37.632;2022-11-02T00:28:28;11.13;;;3.65;;
72974;SDS011;61166;54.228;37.632;2022-11-02T00:30:55;10.00;;;3.72;;
72974;SDS011;61166;54.228;37.632;2022-11-02T00:33:22;11.57;;;3.72;;
72974;SDS011;61166;54.228;37.632;2022-11-02T00:35:49;9.07;;;3.53;;
72974;SDS011;61166;54.228;37.632;2022-11-02T00:38:15;11.52;;;4.32;;
72974;SDS011;61166;54.228;37.632;2022-11-02T00:40:42;14.90;;;4.93;;
72974;SDS011;61166;54.228;37.632;2022-11-02T00:43:08;11.02;;;4.57;;
72974;SDS011;61166;54.228;37.632;2022-11-02T00:45:35;11.27;;;4.03;;
72974;SDS011;61166;54.228;37.632;2022-11-02T00:48:01;10.82;;;4.35;;
72974;SDS011;61166;54.228;37.632;2022-11-02T00:50:29;9.23;;;3.90;;
72974;SDS011;61166;54.228;37.632;2022-11-02T00:52:55;10.52;;;3.30;;
72974;SDS011;61166;54.228;37.632;2022-11-02T00:55:23;8.35;;;3.03;;
72974;SDS011;61166;54.228;37.632;2022-11-02T00:57:49;8.45;;;3.38;;
72974;SDS011;61166;54.228;37.632;2022-11-02T01:00:16;10.13;;;3.20;;
72974;SDS011;61166;54.228;37.632;2022-11-02T01:02:42;6.57;;;2.22;;
72974;SDS011;61166;54.228;37.632;2022-11-02T01:05:10;7.38;;;3.00;;
72974;SDS011;61166;54.228;37.632;2022-11-02T01:07:37;7.72;;;2.65;;
72974;SDS011;61166;54.228;37.632;2022-11-02T01:10:05;6.28;;;2.65;;
72974;SDS011;61166;54.228;37.632;2022-11-02T01:12:35;7.40;;;2.50;;
72974;SDS011;61166;54.228;37.632;2022-11-02T01:15:02;7.40;;;2.50;;
72974;SDS011;61166;54.228;37.632;2022-11-02T01:17:31;5.65;;;2.45;;
72974;SDS011;61166;54.228;37.632;2022-11-02T01:19:57;7.47;;;2.53;;
72974;SDS011;61166;54.228;37.632;2022-11-02T01:22:24;8.02;;;3.15;;
72974;SDS011;61166;54.228;37.632;2022-11-02T01:24:50;6.53;;;2.90;;
72974;SDS011;61166;54.228;37.632;2022-11-02T01:27:17;6.57;;;2.50;;
72974;SDS011;61166;54.228;37.632;2022-11-02T01:29:43;9.40;;;3.28;;
72974;SDS011;61166;54.228;37.632;2022-11-02T01:32:10;9.75;;;3.70;;
72974;SDS011;61166;54.228;37.632;2022-11-02T01:34:36;12.60;;;3.88;;
72974;SDS011;61166;54.228;37.632;2022-11-02T01:37:03;10.20;;;3.25;;
72974;SDS011;61166;54.228;37.632;2022-11-02T01:39:30;6.80;;;2.25;;
72974;SDS011;61166;54.228;37.632;2022-11-02T01:41:56;9.18;;;2.38;;
72974;SDS011;61166;54.228;37.632;2022-11-02T01:44:27;6.00;;;2.17;;
72974;SDS011;61166;54.228;37.632;2022-11-02T01:46:58;4.43;;;2.00;;
72974;SDS011;61166;54.228;37.632;2022-11-02T01:49:37;7.38;;;2.10;;
72974;SDS011;61166;54.228;37.632;2022-11-02T01:52:12;6.20;;;1.38;;
72974;SDS011;61166;54.228;37.632;2022-11-02T01:54:57;3.97;;;1.33;;
72974;SDS011;61166;54.228;37.632;2022-11-02T01:57:29;3.28;;;1.30;;
72974;SDS011;61166;54.228;37.632;2022-11-02T02:02:31;6.43;;;1.73;;
72974;SDS011;61166;54.228;37.632;2022-11-02T02:05:04;5.40;;;1.50;;
72974;SDS011;61166;54.228;37.632;2022-11-02T02:07:33;5.35;;;1.63;;
72974;SDS011;61166;54.228;37.632;2022-11-02T02:10:03;4.80;;;1.80;;
72974;SDS011;61166;54.228;37.632;2022-11-02T02:12:31;7.03;;;1.73;;
72974;SDS011;61166;54.228;37.632;2022-11-02T02:14:59;5.55;;;1.50;;
72974;SDS011;61166;54.228;37.632;2022-11-02T02:25:59;8.45;;;2.00;;
72974;SDS011;61166;54.228;37.632;2022-11-02T02:28:47;8.32;;;2.10;;
72974;SDS011;61166;54.228;37.632;2022-11-02T02:31:41;6.80;;;1.65;;
72974;SDS011;61166;54.228;37.632;2022-11-02T02:34:23;5.20;;;2.00;;
72974;SDS011;61166;54.228;37.632;2022-11-02T02:37:00;6.20;;;1.98;;
72974;SDS011;61166;54.228;37.632;2022-11-02T02:39:35;9.98;;;2.22;;
72974;SDS011;61166;54.228;37.632;2022-11-02T02:42:40;4.82;;;2.10;;
72974;SDS011;61166;54.228;37.632;2022-11-02T02:45:17;5.97;;;2.15;;
72974;SDS011;61166;54.228;37.632;2022-11-02T02:47:53;9.68;;;2.40;;
72974;SDS011;61166;54.228;37.632;2022-11-02T02:50:36;6.28;;;2.17;;
72974;SDS011;61166;54.228;37.632;2022-11-02T02:53:08;8.13;;;3.17;;
72974;SDS011;61166;54.228;37.632;2022-11-02T02:55:37;6.27;;;2.50;;
72974;SDS011;61166;54.228;37.632;2022-11-02T02:58:10;8.07;;;2.63;;
72974;SDS011;61166;54.228;37.632;2022-11-02T03:00:42;8.90;;;2.95;;
72974;SDS011;61166;54.228;37.632;2022-11-02T03:03:14;8.60;;;2.92;;
72974;SDS011;61166;54.228;37.632;2022-11-02T03:05:52;8.45;;;2.78;;
72974;SDS011;61166;54.228;37.632;2022-11-02T03:08:32;9.75;;;3.00;;
72974;SDS011;61166;54.228;37.632;2022-11-02T03:19:07;7.05;;;2.40;;
72974;SDS011;61166;54.228;37.632;2022-11-02T03:21:40;7.63;;;2.87;;
72974;SDS011;61166;54.228;37.632;2022-11-02T03:32:26;11.50;;;3.80;;
72974;SDS011;61166;54.228;37.632;2022-11-02T03:34:56;7.27;;;2.90;;
72974;SDS011;61166;54.228;37.632;2022-11-02T03:37:26;9.65;;;3.67;;
72974;SDS011;61166;54.228;37.632;2022-11-02T03:42:37;10.48;;;3.25;;
72974;SDS011;61166;54.228;37.632;2022-11-02T03:45:11;11.93;;;3.33;;
72974;SDS011;61166;54.228;37.632;2022-11-02T03:47:42;9.77;;;3.38;;
72974;SDS011;61166;54.228;37.632;2022-11-02T03:50:12;10.15;;;2.88;;
72974;SDS011;61166;54.228;37.632;2022-11-02T03:52:44;10.13;;;3.03;;
72974;SDS011;61166;54.228;37.632;2022-11-02T03:55:18;10.65;;;3.15;;
72974;SDS011;61166;54.228;37.632;2022-11-02T03:57:51;11.20;;;3.00;;
72974;SDS011;61166;54.228;37.632;2022-11-02T04:00:22;10.05;;;2.90;;
72974;SDS011;61166;54.228;37.632;2022-11-02T04:02:51;8.55;;;3.05;;
72974;SDS011;61166;54.228;37.632;2022-11-02T04:05:28;9.80;;;2.92;;
72974;SDS011;61166;54.228;37.632;2022-11-02T04:07:56;8.27;;;2.80;;
72974;SDS011;61166;54.228;37.632;2022-11-02T04:10:25;8.65;;;2.83;;
72974;SDS011;61166;54.228;37.632;2022-11-02T04:12:51;8.00;;;2.50;;
72974;SDS011;61166;54.228;37.632;2022-11-02T04:15:18;11.27;;;2.75;;
72974;SDS011;61166;54.228;37.632;2022-11-02T04:17:44;8.80;;;2.50;;
72974;SDS011;61166;54.228;37.632;2022-11-02T04:20:11;8.82;;;2.28;;
72974;SDS011;61166;54.228;37.632;2022-11-02T04:22:37;5.88;;;2.17;;
72974;SDS011;61166;54.228;37.632;2022-11-02T04:25:05;8.20;;;2.40;;
72974;SDS011;61166;54.228;37.632;2022-11-02T04:27:33;9.23;;;2.92;;
72974;SDS011;61166;54.228;37.632;2022-11-02T04:29:59;8.32;;;2.50;;
72974;SDS011;61166;54.228;37.632;2022-11-02T04:32:26;8.15;;;2.92;;
72974;SDS011;61166;54.228;37.632;2022-11-02T04:34:53;7.32;;;2.50;;
72974;SDS011;61166;54.228;37.632;2022-11-02T04:37:20;6.47;;;2.35;;
72974;SDS011;61166;54.228;37.632;2022-11-02T04:39:46;9.10;;;2.20;;
72974;SDS011;61166;54.228;37.632;2022-11-02T04:42:13;7.80;;;2.60;;
72974;SDS011;61166;54.228;37.632;2022-11-02T04:44:39;7.10;;;2.60;;
72974;SDS011;61166;54.228;37.632;2022-11-02T04:47:06;9.60;;;2.58;;
72974;SDS011;61166;54.228;37.632;2022-11-02T04:49:32;5.95;;;2.30;;
72974;SDS011;61166;54.228;37.632;2022-11-02T04:51:59;11.07;;;3.03;;
72974;SDS011;61166;54.228;37.632;2022-11-02T04:54:26;7.45;;;2.50;;
72974;SDS011;61166;54.228;37.632;2022-11-02T04:56:53;11.55;;;2.60;;
72974;SDS011;61166;54.228;37.632;2022-11-02T04:59:19;8.50;;;2.67;;
72974;SDS011;61166;54.228;37.632;2022-11-02T05:01:49;12.00;;;2.88;;
72974;SDS011;61166;54.228;37.632;2022-11-02T05:04:16;8.40;;;2.45;;
72974;SDS011;61166;54.228;37.632;2022-11-02T05:06:43;8.27;;;2.28;;
72974;SDS011;61166;54.228;37.632;2022-11-02T05:09:09;8.27;;;2.00;;
72974;SDS011;61166;54.228;37.632;2022-11-02T05:11:36;6.38;;;2.90;;
72974;SDS011;61166;54.228;37.632;2022-11-02T05:14:07;6.87;;;2.37;;
72974;SDS011;61166;54.228;37.632;2022-11-02T05:16:34;8.77;;;2.13;;
72974;SDS011;61166;54.228;37.632;2022-11-02T05:19:00;9.93;;;2.83;;
72974;SDS011;61166;54.228;37.632;2022-11-02T05:21:32;8.50;;;2.55;;
72974;SDS011;61166;54.228;37.632;2022-11-02T05:23:58;9.90;;;2.95;;
72974;SDS011;61166;54.228;37.632;2022-11-02T05:26:25;10.98;;;2.72;;
72974;SDS011;61166;54.228;37.632;2022-11-02T05:28:51;7.47;;;2.17;;
72974;SDS011;61166;54.228;37.632;2022-11-02T05:31:18;6.95;;;2.17;;
72974;SDS011;61166;54.228;37.632;2022-11-02T05:33:45;7.05;;;2.30;;
72974;SDS011;61166;54.228;37.632;2022-11-02T05:36:11;10.20;;;2.50;;
72974;SDS011;61166;54.228;37.632;2022-11-02T05:38:38;10.30;;;2.97;;
72974;SDS011;61166;54.228;37.632;2022-11-02T05:41:09;10.30;;;3.20;;
72974;SDS011;61166;54.228;37.632;2022-11-02T05:43:36;11.32;;;2.83;;
72974;SDS011;61166;54.228;37.632;2022-11-02T05:46:03;9.88;;;3.22;;
72974;SDS011;61166;54.228;37.632;2022-11-02T05:48:31;7.55;;;2.60;;
72974;SDS011;61166;54.228;37.632;2022-11-02T05:50:59;8.32;;;3.00;;
72974;SDS011;61166;54.228;37.632;2022-11-02T05:53:27;11.98;;;3.42;;
72974;SDS011;61166;54.228;37.632;2022-11-02T05:55:57;7.90;;;3.10;;
72974;SDS011;61166;54.228;37.632;2022-11-02T05:58:25;8.40;;;2.72;;
72974;SDS011;61166;54.228;37.632;2022-11-02T06:00:52;7.72;;;3.15;;
72974;SDS011;61166;54.228;37.632;2022-11-02T06:03:19;8.60;;;2.55;;
72974;SDS011;61166;54.228;37.632;2022-11-02T06:05:46;9.27;;;3.10;;
72974;SDS011;61166;54.228;37.632;2022-11-02T06:08:12;6.65;;;2.50;;
72974;SDS011;61166;54.228;37.632;2022-11-02T06:10:39;11.80;;;2.83;;
72974;SDS011;61166;54.228;37.632;2022-11-02T06:13:06;8.20;;;2.45;;
72974;SDS011;61166;54.228;37.632;2022-11-02T06:15:32;12.85;;;3.33;;
72974;SDS011;61166;54.228;37.632;2022-11-02T06:17:59;7.45;;;3.25;;
72974;SDS011;61166;54.228;37.632;2022-11-02T06:20:25;10.30;;;3.30;;
72974;SDS011;61166;54.228;37.632;2022-11-02T06:22:52;14.27;;;3.60;;
72974;SDS011;61166;54.228;37.632;2022-11-02T06:25:19;8.77;;;3.05;;
72974;SDS011;61166;54.228;37.632;2022-11-02T06:27:49;9.85;;;3.05;;
72974;SDS011;61166;54.228;37.632;2022-11-02T06:30:17;10.90;;;3.38;;
72974;SDS011;61166;54.228;37.632;2022-11-02T06:32:48;11.50;;;3.83;;
72974;SDS011;61166;54.228;37.632;2022-11-02T06:35:16;9.60;;;3.42;;
72974;SDS011;61166;54.228;37.632;2022-11-02T06:37:44;11.95;;;3.30;;
72974;SDS011;61166;54.228;37.632;2022-11-02T06:40:11;8.18;;;2.95;;
72974;SDS011;61166;54.228;37.632;2022-11-02T06:42:39;11.38;;;3.75;;
72974;SDS011;61166;54.228;37.632;2022-11-02T06:45:10;11.45;;;4.28;;
72974;SDS011;61166;54.228;37.632;2022-11-02T06:47:37;11.15;;;3.28;;
72974;SDS011;61166;54.228;37.632;2022-11-02T06:50:04;10.88;;;3.10;;
72974;SDS011;61166;54.228;37.632;2022-11-02T06:52:31;13.20;;;3.35;;
72974;SDS011;61166;54.228;37.632;2022-11-02T06:54:58;9.18;;;3.15;;
72974;SDS011;61166;54.228;37.632;2022-11-02T06:57:25;11.00;;;3.10;;
72974;SDS011;61166;54.228;37.632;2022-11-02T07:00:08;9.85;;;3.83;;
72974;SDS011;61166;54.228;37.632;2022-11-02T07:02:36;9.63;;;3.92;;
72974;SDS011;61166;54.228;37.632;2022-11-02T07:05:07;13.15;;;4.28;;
72974;SDS011;61166;54.228;37.632;2022-11-02T07:07:34;12.23;;;4.53;;
72974;SDS011;61166;54.228;37.632;2022-11-02T07:10:00;11.63;;;4.50;;
72974;SDS011;61166;54.228;37.632;2022-11-02T07:12:27;9.70;;;4.43;;
72974;SDS011;61166;54.228;37.632;2022-11-02T07:14:54;11.65;;;4.88;;
72974;SDS011;61166;54.228;37.632;2022-11-02T07:17:20;12.40;;;5.05;;
72974;SDS011;61166;54.228;37.632;2022-11-02T07:19:47;12.15;;;4.55;;
72974;SDS011;61166;54.228;37.632;2022-11-02T07:22:17;12.98;;;4.18;;
72974;SDS011;61166;54.228;37.632;2022-11-02T07:24:44;12.10;;;4.45;;
72974;SDS011;61166;54.228;37.632;2022-11-02T07:27:10;11.50;;;4.60;;
72974;SDS011;61166;54.228;37.632;2022-11-02T07:29:37;11.93;;;5.05;;
72974;SDS011;61166;54.228;37.632;2022-11-02T07:32:04;7.95;;;3.65;;
72974;SDS011;61166;54.228;37.632;2022-11-02T07:34:30;9.80;;;3.30;;
72974;SDS011;61166;54.228;37.632;2022-11-02T07:36:57;9.90;;;3.42;;
72974;SDS011;61166;54.228;37.632;2022-11-02T07:39:24;10.88;;;3.70;;
72974;SDS011;61166;54.228;37.632;2022-11-02T07:41:51;13.23;;;4.50;;
72974;SDS011;61166;54.228;37.632;2022-11-02T07:44:17;9.68;;;3.55;;
72974;SDS011;61166;54.228;37.632;2022-11-02T07:46:44;9.75;;;3.22;;
72974;SDS011;61166;54.228;37.632;2022-11-02T07:49:10;8.18;;;2.85;;
72974;SDS011;61166;54.228;37.632;2022-11-02T07:51:37;9.02;;;3.65;;
72974;SDS011;61166;54.228;37.632;2022-11-02T07:54:03;10.27;;;3.80;;
72974;SDS011;61166;54.228;37.632;2022-11-02T07:56:30;11.13;;;3.40;;
72974;SDS011;61166;54.228;37.632;2022-11-02T07:58:57;12.60;;;3.92;;
72974;SDS011;61166;54.228;37.632;2022-11-02T08:01:24;15.27;;;4.15;;
72974;SDS011;61166;54.228;37.632;2022-11-02T08:03:50;11.13;;;4.35;;
72974;SDS011;61166;54.228;37.632;2022-11-02T08:06:17;12.02;;;4.45;;
72974;SDS011;61166;54.228;37.632;2022-11-02T08:08:44;8.70;;;3.92;;
72974;SDS011;61166;54.228;37.632;2022-11-02T08:11:10;7.78;;;3.38;;
72974;SDS011;61166;54.228;37.632;2022-11-02T08:13:37;13.40;;;3.60;;
72974;SDS011;61166;54.228;37.632;2022-11-02T08:16:04;9.55;;;3.80;;
72974;SDS011;61166;54.228;37.632;2022-11-02T08:18:30;10.23;;;4.25;;
72974;SDS011;61166;54.228;37.632;2022-11-02T08:21:00;12.05;;;4.10;;
72974;SDS011;61166;54.228;37.632;2022-11-02T08:23:26;9.25;;;3.67;;
72974;SDS011;61166;54.228;37.632;2022-11-02T08:25:53;11.00;;;4.47;;
72974;SDS011;61166;54.228;37.632;2022-11-02T08:28:28;9.45;;;3.85;;
72974;SDS011;61166;54.228;37.632;2022-11-02T08:30:57;9.93;;;4.07;;
72974;SDS011;61166;54.228;37.632;2022-11-02T08:33:24;11.00;;;3.80;;
72974;SDS011;61166;54.228;37.632;2022-11-02T08:35:50;8.27;;;3.42;;
72974;SDS011;61166;54.228;37.632;2022-11-02T08:38:17;9.55;;;3.75;;
72974;SDS011;61166;54.228;37.632;2022-11-02T08:40:44;13.25;;;4.70;;
72974;SDS011;61166;54.228;37.632;2022-11-02T08:43:12;9.88;;;4.13;;
72974;SDS011;61166;54.228;37.632;2022-11-02T08:45:41;9.43;;;3.88;;
72974;SDS011;61166;54.228;37.632;2022-11-02T08:48:29;11.45;;;5.05;;
72974;SDS011;61166;54.228;37.632;2022-11-02T08:50:57;11.73;;;5.13;;
72974;SDS011;61166;54.228;37.632;2022-11-02T08:53:24;12.73;;;6.78;;
72974;SDS011;61166;54.228;37.632;2022-11-02T08:55:51;7.40;;;3.30;;
72974;SDS011;61166;54.228;37.632;2022-11-02T08:58:18;8.32;;;3.42;;
72974;SDS011;61166;54.228;37.632;2022-11-02T09:00:54;8.07;;;3.55;;
72974;SDS011;61166;54.228;37.632;2022-11-02T09:03:29;8.00;;;3.90;;
72974;SDS011;61166;54.228;37.632;2022-11-02T09:05:57;10.57;;;3.00;;
72974;SDS011;61166;54.228;37.632;2022-11-02T09:08:25;12.73;;;4.03;;
72974;SDS011;61166;54.228;37.632;2022-11-02T09:10:52;8.50;;;3.50;;
72974;SDS011;61166;54.228;37.632;2022-11-02T09:13:22;6.78;;;2.60;;
72974;SDS011;61166;54.228;37.632;2022-11-02T09:15:50;6.18;;;2.95;;
72974;SDS011;61166;54.228;37.632;2022-11-02T09:18:20;8.45;;;3.15;;
72974;SDS011;61166;54.228;37.632;2022-11-02T09:20:48;6.90;;;2.75;;
72974;SDS011;61166;54.228;37.632;2022-11-02T09:23:15;6.68;;;2.90;;
72974;SDS011;61166;54.228;37.632;2022-11-02T09:25:42;7.50;;;2.95;;
72974;SDS011;61166;54.228;37.632;2022-11-02T09:28:09;6.57;;;3.10;;
72974;SDS011;61166;54.228;37.632;2022-11-02T09:30:37;6.30;;;3.08;;
72974;SDS011;61166;54.228;37.632;2022-11-02T09:33:04;6.93;;;3.13;;
72974;SDS011;61166;54.228;37.632;2022-11-02T09:35:38;11.43;;;5.15;;
72974;SDS011;61166;54.228;37.632;2022-11-02T09:38:09;6.57;;;3.08;;
72974;SDS011;61166;54.228;37.632;2022-11-02T09:40:37;6.72;;;2.92;;
72974;SDS011;61166;54.228;37.632;2022-11-02T09:45:54;18.05;;;4.18;;
72974;SDS011;61166;54.228;37.632;2022-11-02T09:48:27;6.13;;;3.03;;
72974;SDS011;61166;54.228;37.632;2022-11-02T09:53:35;6.22;;;2.47;;
72974;SDS011;61166;54.228;37.632;2022-11-02T09:56:08;6.03;;;2.22;;
72974;SDS011;61166;54.228;37.632;2022-11-02T09:58:38;7.57;;;2.70;;
72974;SDS011;61166;54.228;37.632;2022-11-02T10:01:12;20.30;;;3.55;;
72974;SDS011;61166;54.228;37.632;2022-11-02T10:03:59;10.57;;;3.90;;
72974;SDS011;61166;54.228;37.632;2022-11-02T10:07:00;9.70;;;2.88;;
72974;SDS011;61166;54.228;37.632;2022-11-02T10:09:32;6.30;;;2.33;;
72974;SDS011;61166;54.228;37.632;2022-11-02T10:12:16;8.07;;;2.75;;
72974;SDS011;61166;54.228;37.632;2022-11-02T10:15:04;4.60;;;1.35;;
72974;SDS011;61166;54.228;37.632;2022-11-02T10:17:42;13.23;;;4.22;;
72974;SDS011;61166;54.228;37.632;2022-11-02T10:22:59;5.88;;;1.40;;
72974;SDS011;61166;54.228;37.632;2022-11-02T10:25:32;3.67;;;1.48;;
72974;SDS011;61166;54.228;37.632;2022-11-02T10:28:02;4.78;;;1.75;;
72974;SDS011;61166;54.228;37.632;2022-11-02T10:30:37;4.07;;;1.77;;
72974;SDS011;61166;54.228;37.632;2022-11-02T10:33:09;2.95;;;1.40;;
72974;SDS011;61166;54.228;37.632;2022-11-02T10:38:47;4.05;;;1.40;;
72974;SDS011;61166;54.228;37.632;2022-11-02T10:41:31;4.15;;;1.67;;
72974;SDS011;61166;54.228;37.632;2022-11-02T10:52:14;3.75;;;1.80;;
72974;SDS011;61166;54.228;37.632;2022-11-02T10:54:42;2.90;;;1.55;;
72974;SDS011;61166;54.228;37.632;2022-11-02T10:57:12;4.10;;;1.60;;
72974;SDS011;61166;54.228;37.632;2022-11-02T10:59:40;4.60;;;1.67;;
72974;SDS011;61166;54.228;37.632;2022-11-02T11:02:10;4.13;;;1.60;;
72974;SDS011;61166;54.228;37.632;2022-11-02T11:04:39;3.13;;;1.23;;
72974;SDS011;61166;54.228;37.632;2022-11-02T11:07:18;3.35;;;1.40;;
72974;SDS011;61166;54.228;37.632;2022-11-02T11:09:54;2.70;;;1.23;;
72974;SDS011;61166;54.228;37.632;2022-11-02T11:12:28;4.10;;;1.40;;
72974;SDS011;61166;54.228;37.632;2022-11-02T11:14:58;3.58;;;1.58;;
72974;SDS011;61166;54.228;37.632;2022-11-02T11:17:49;3.92;;;1.60;;
72974;SDS011;61166;54.228;37.632;2022-11-02T11:20:36;3.35;;;1.38;;
72974;SDS011;61166;54.228;37.632;2022-11-02T11:23:21;5.05;;;1.60;;
72974;SDS011;61166;54.228;37.632;2022-11-02T11:25:59;6.05;;;1.38;;
72974;SDS011;61166;54.228;37.632;2022-11-02T11:33:30;4.03;;;1.42;;
72974;SDS011;61166;54.228;37.632;2022-11-02T11:35:58;3.65;;;1.60;;
72974;SDS011;61166;54.228;37.632;2022-11-02T11:38:25;2.67;;;1.08;;
72974;SDS011;61166;54.228;37.632;2022-11-02T11:40:53;4.00;;;1.95;;
72974;SDS011;61166;54.228;37.632;2022-11-02T11:43:24;3.70;;;1.60;;
72974;SDS011;61166;54.228;37.632;2022-11-02T11:46:00;6.53;;;2.10;;
72974;SDS011;61166;54.228;37.632;2022-11-02T11:51:31;5.15;;;2.08;;
72974;SDS011;61166;54.228;37.632;2022-11-02T11:56:49;4.53;;;1.75;;
72974;SDS011;61166;54.228;37.632;2022-11-02T12:01:59;6.53;;;2.33;;
72974;SDS011;61166;54.228;37.632;2022-11-02T12:04:28;5.25;;;2.00;;
72974;SDS011;61166;54.228;37.632;2022-11-02T12:07:05;6.32;;;2.65;;
72974;SDS011;61166;54.228;37.632;2022-11-02T12:24:02;4.43;;;1.23;;
72974;SDS011;61166;54.228;37.632;2022-11-02T12:32:13;4.63;;;1.50;;
72974;SDS011;61166;54.228;37.632;2022-11-02T12:37:52;3.22;;;1.67;;
72974;SDS011;61166;54.228;37.632;2022-11-02T12:52:17;4.93;;;1.80;;
72974;SDS011;61166;54.228;37.632;2022-11-02T12:54:49;4.78;;;2.00;;
72974;SDS011;61166;54.228;37.632;2022-11-02T12:57:21;4.43;;;1.70;;
72974;SDS011;61166;54.228;37.632;2022-11-02T12:59:51;3.63;;;1.73;;
72974;SDS011;61166;54.228;37.632;2022-11-02T13:02:27;5.65;;;2.63;;
72974;SDS011;61166;54.228;37.632;2022-11-02T13:05:03;7.20;;;2.97;;
72974;SDS011;61166;54.228;37.632;2022-11-02T13:10:19;5.85;;;2.78;;
72974;SDS011;61166;54.228;37.632;2022-11-02T13:12:54;3.75;;;1.58;;
72974;SDS011;61166;54.228;37.632;2022-11-02T13:15:24;4.30;;;2.10;;
72974;SDS011;61166;54.228;37.632;2022-11-02T13:17:55;5.93;;;2.42;;
72974;SDS011;61166;54.228;37.632;2022-11-02T13:23:10;4.57;;;2.10;;
72974;SDS011;61166;54.228;37.632;2022-11-02T13:26:00;6.22;;;2.22;;
72974;SDS011;61166;54.228;37.632;2022-11-02T13:30:59;9.20;;;4.15;;
72974;SDS011;61166;54.228;37.632;2022-11-02T13:33:33;9.00;;;4.07;;
72974;SDS011;61166;54.228;37.632;2022-11-02T13:36:13;6.05;;;2.72;;
72974;SDS011;61166;54.228;37.632;2022-11-02T13:38:45;6.45;;;2.80;;
72974;SDS011;61166;54.228;37.632;2022-11-02T13:49:28;18.85;;;8.15;;
72974;SDS011;61166;54.228;37.632;2022-11-02T13:52:01;16.33;;;6.25;;
72974;SDS011;61166;54.228;37.632;2022-11-02T13:54:34;7.53;;;3.78;;
72974;SDS011;61166;54.228;37.632;2022-11-02T13:57:19;10.07;;;4.82;;
72974;SDS011;61166;54.228;37.632;2022-11-02T13:59:56;5.55;;;2.83;;
72974;SDS011;61166;54.228;37.632;2022-11-02T14:02:24;9.55;;;4.15;;
72974;SDS011;61166;54.228;37.632;2022-11-02T14:04:54;9.07;;;4.28;;
72974;SDS011;61166;54.228;37.632;2022-11-02T14:07:24;8.05;;;3.55;;
72974;SDS011;61166;54.228;37.632;2022-11-02T14:10:06;6.82;;;3.38;;
72974;SDS011;61166;54.228;37.632;2022-11-02T14:12:41;12.40;;;4.57;;
72974;SDS011;61166;54.228;37.632;2022-11-02T14:25:45;10.15;;;4.40;;
72974;SDS011;61166;54.228;37.632;2022-11-02T14:28:32;9.95;;;4.97;;
72974;SDS011;61166;54.228;37.632;2022-11-02T14:34:02;8.90;;;4.35;;
72974;SDS011;61166;54.228;37.632;2022-11-02T14:47:33;13.30;;;4.55;;
72974;SDS011;61166;54.228;37.632;2022-11-02T14:52:36;9.77;;;5.05;;
72974;SDS011;61166;54.228;37.632;2022-11-02T14:55:07;9.57;;;5.32;;
72974;SDS011;61166;54.228;37.632;2022-11-02T14:57:56;9.68;;;4.63;;
72974;SDS011;61166;54.228;37.632;2022-11-02T15:03:24;14.45;;;5.35;;
72974;SDS011;61166;54.228;37.632;2022-11-02T15:06:01;10.68;;;5.53;;
72974;SDS011;61166;54.228;37.632;2022-11-02T15:08:49;12.85;;;6.00;;
72974;SDS011;61166;54.228;37.632;2022-11-02T15:11:42;10.52;;;4.60;;
72974;SDS011;61166;54.228;37.632;2022-11-02T15:19:43;19.38;;;8.02;;
72974;SDS011;61166;54.228;37.632;2022-11-02T15:24:57;17.27;;;7.40;;
72974;SDS011;61166;54.228;37.632;2022-11-02T15:27:28;21.98;;;8.80;;
72974;SDS011;61166;54.228;37.632;2022-11-02T15:29:55;13.25;;;5.35;;
72974;SDS011;61166;54.228;37.632;2022-11-02T15:32:24;17.60;;;9.02;;
72974;SDS011;61166;54.228;37.632;2022-11-02T15:34:53;12.75;;;5.82;;
72974;SDS011;61166;54.228;37.632;2022-11-02T15:37:23;16.80;;;8.25;;
72974;SDS011;61166;54.228;37.632;2022-11-02T15:39:53;16.23;;;8.02;;
72974;SDS011;61166;54.228;37.632;2022-11-02T15:51:03;23.52;;;10.38;;
72974;SDS011;61166;54.228;37.632;2022-11-02T16:02:00;18.95;;;8.60;;
72974;SDS011;61166;54.228;37.632;2022-11-02T16:04:30;17.13;;;6.65;;
72974;SDS011;61166;54.228;37.632;2022-11-02T16:07:02;22.23;;;7.35;;
72974;SDS011;61166;54.228;37.632;2022-11-02T16:09:34;22.17;;;9.73;;
72974;SDS011;61166;54.228;37.632;2022-11-02T16:14:39;31.52;;;10.38;;
72974;SDS011;61166;54.228;37.632;2022-11-02T16:17:24;25.90;;;10.38;;
72974;SDS011;61166;54.228;37.632;2022-11-02T16:20:17;22.48;;;8.80;;
72974;SDS011;61166;54.228;37.632;2022-11-02T16:22:53;23.17;;;9.67;;
72974;SDS011;61166;54.228;37.632;2022-11-02T16:30:59;26.27;;;10.65;;
72974;SDS011;61166;54.228;37.632;2022-11-02T16:33:50;24.42;;;11.32;;
72974;SDS011;61166;54.228;37.632;2022-11-02T16:36:28;22.47;;;8.90;;
72974;SDS011;61166;54.228;37.632;2022-11-02T16:41:33;25.20;;;9.77;;
72974;SDS011;61166;54.228;37.632;2022-11-02T16:47:19;27.83;;;9.73;;
72974;SDS011;61166;54.228;37.632;2022-11-02T16:50:18;26.73;;;11.20;;
72974;SDS011;61166;54.228;37.632;2022-11-02T16:52:34;26.70;;;10.38;;
72974;SDS011;61166;54.228;37.632;2022-11-02T16:55:04;26.30;;;10.48;;
72974;SDS011;61166;54.228;37.632;2022-11-02T16:58:00;26.75;;;11.07;;
72974;SDS011;61166;54.228;37.632;2022-11-02T17:00:28;30.25;;;10.75;;
72974;SDS011;61166;54.228;37.632;2022-11-02T17:02:54;27.73;;;11.93;;
72974;SDS011;61166;54.228;37.632;2022-11-02T17:05:22;23.67;;;9.77;;
72974;SDS011;61166;54.228;37.632;2022-11-02T17:10:29;23.95;;;9.45;;
72974;SDS011;61166;54.228;37.632;2022-11-02T17:12:57;25.05;;;9.55;;
72974;SDS011;61166;54.228;37.632;2022-11-02T17:15:27;19.63;;;8.60;;
72974;SDS011;61166;54.228;37.632;2022-11-02T17:20:35;15.10;;;6.38;;
72974;SDS011;61166;54.228;37.632;2022-11-02T17:23:07;13.35;;;5.85;;
72974;SDS011;61166;54.228;37.632;2022-11-02T17:26:16;18.95;;;9.32;;
72974;SDS011;61166;54.228;37.632;2022-11-02T17:31:35;24.25;;;9.02;;
72974;SDS011;61166;54.228;37.632;2022-11-02T17:34:10;23.77;;;10.70;;
72974;SDS011;61166;54.228;37.632;2022-11-02T17:36:44;21.92;;;7.28;;
72974;SDS011;61166;54.228;37.632;2022-11-02T17:39:13;15.77;;;5.63;;
72974;SDS011;61166;54.228;37.632;2022-11-02T17:41:41;18.57;;;7.37;;
72974;SDS011;61166;54.228;37.632;2022-11-02T17:44:15;19.65;;;8.18;;
72974;SDS011;61166;54.228;37.632;2022-11-02T17:46:42;21.95;;;10.43;;
72974;SDS011;61166;54.228;37.632;2022-11-02T17:49:11;14.77;;;6.43;;
72974;SDS011;61166;54.228;37.632;2022-11-02T17:51:38;25.08;;;9.02;;
72974;SDS011;61166;54.228;37.632;2022-11-02T17:54:05;19.15;;;8.23;;
72974;SDS011;61166;54.228;37.632;2022-11-02T17:56:32;17.02;;;6.97;;
72974;SDS011;61166;54.228;37.632;2022-11-02T17:58:59;20.55;;;8.18;;
72974;SDS011;61166;54.228;37.632;2022-11-02T18:01:25;14.10;;;6.72;;